createdAt,value
2018-03-18T00:00:25.957Z,13.63
2018-03-18T00:02:53.455Z,12.27
2018-03-18T00:05:21.752Z,13.10
2018-03-18T00:07:49.241Z,12.30
2018-03-18T00:10:16.713Z,12.67
2018-03-18T00:12:44.217Z,13.90
2018-03-18T00:15:11.689Z,14.70
2018-03-18T00:17:39.209Z,31.73
2018-03-18T00:20:07.456Z,14.63
2018-03-18T00:22:34.943Z,13.77
2018-03-18T00:25:03.192Z,13.63
2018-03-18T00:27:30.712Z,12.53
2018-03-18T00:29:58.174Z,13.67
2018-03-18T00:32:25.656Z,13.73
2018-03-18T00:34:53.144Z,15.00
2018-03-18T00:37:21.397Z,13.60
2018-03-18T00:39:48.866Z,13.27
2018-03-18T00:42:17.174Z,13.93
2018-03-18T00:44:44.643Z,14.00
2018-03-18T00:47:12.115Z,13.83
2018-03-18T00:49:39.601Z,13.37
2018-03-18T00:52:07.089Z,12.97
2018-03-18T00:54:35.338Z,14.17
2018-03-18T00:57:02.815Z,13.77
2018-03-18T00:59:31.069Z,14.40
2018-03-18T01:01:58.537Z,14.17
2018-03-18T01:04:26.038Z,12.37
2018-03-18T01:06:53.500Z,14.17
2018-03-18T01:09:20.989Z,12.80
2018-03-18T01:11:48.453Z,12.83
2018-03-18T01:14:15.971Z,13.23
2018-03-18T01:16:43.445Z,13.33
2018-03-18T01:19:10.942Z,12.80
2018-03-18T01:21:38.429Z,11.97
2018-03-18T01:24:05.923Z,13.37
2018-03-18T01:26:33.384Z,12.73
2018-03-18T01:29:00.882Z,13.40
2018-03-18T01:31:29.149Z,12.93
2018-03-18T01:33:56.622Z,13.20
2018-03-18T01:36:24.884Z,13.10
2018-03-18T01:38:52.368Z,19.52
2018-03-18T01:41:19.857Z,14.53
2018-03-18T01:43:47.378Z,14.13
2018-03-18T01:46:15.635Z,12.93
2018-03-18T01:48:43.100Z,12.53
2018-03-18T01:51:11.384Z,13.50
2018-03-18T01:53:39.621Z,13.27
2018-03-18T01:56:07.124Z,12.63
2018-03-18T01:58:34.594Z,11.37
2018-03-18T02:01:02.117Z,13.30
2018-03-18T02:03:30.072Z,13.40
2018-03-18T02:05:57.713Z,12.77
2018-03-18T02:08:25.197Z,12.87
2018-03-18T02:10:52.693Z,13.47
2018-03-18T02:13:20.172Z,13.43
2018-03-18T02:15:47.653Z,13.63
2018-03-18T02:18:15.152Z,13.77
2018-03-18T02:20:43.395Z,13.27
2018-03-18T02:23:10.929Z,14.17
2018-03-18T02:25:42.721Z,13.87
2018-03-18T02:28:10.201Z,13.60
2018-03-18T02:30:38.439Z,13.87
2018-03-18T02:33:05.913Z,13.10
2018-03-18T02:35:33.388Z,13.87
2018-03-18T02:38:00.897Z,13.23
2018-03-18T02:40:28.437Z,13.50
2018-03-18T02:42:55.998Z,12.13
2018-03-18T02:45:23.474Z,14.17
2018-03-18T02:47:50.966Z,13.87
2018-03-18T02:50:18.533Z,14.40
2018-03-18T02:52:46.791Z,14.33
2018-03-18T02:55:14.272Z,13.87
2018-03-18T02:57:42.569Z,12.47
2018-03-18T03:00:10.045Z,13.03
2018-03-18T03:02:37.538Z,14.10
2018-03-18T03:05:05.030Z,13.20
2018-03-18T03:07:33.264Z,12.53
2018-03-18T03:10:00.752Z,12.20
2018-03-18T03:12:28.992Z,12.67
2018-03-18T03:14:56.485Z,12.30
2018-03-18T03:17:25.461Z,12.77
2018-03-18T03:19:52.937Z,11.40
2018-03-18T03:22:21.190Z,12.20
2018-03-18T03:24:48.689Z,12.10
2018-03-18T03:27:16.168Z,11.73
2018-03-18T03:29:43.665Z,11.97
2018-03-18T03:32:11.142Z,11.43
2018-03-18T03:34:39.408Z,12.97
2018-03-18T03:37:07.646Z,11.90
2018-03-18T03:39:35.134Z,10.70
2018-03-18T03:42:02.599Z,12.33
2018-03-18T03:44:30.902Z,11.67
2018-03-18T03:46:58.383Z,12.60
2018-03-18T03:49:25.877Z,12.80
2018-03-18T03:51:53.365Z,11.97
2018-03-18T03:54:20.830Z,12.43
2018-03-18T03:56:48.317Z,12.30
2018-03-18T03:59:15.782Z,12.20
2018-03-18T04:01:43.274Z,11.90
2018-03-18T04:04:11.509Z,11.53
2018-03-18T04:06:39.000Z,11.43
2018-03-18T04:09:06.473Z,10.77
2018-03-18T04:11:34.732Z,11.13
2018-03-18T04:14:02.205Z,12.00
2018-03-18T04:16:30.454Z,12.83
2018-03-18T04:18:57.925Z,11.23
2018-03-18T04:21:25.425Z,11.37
2018-03-18T04:23:52.896Z,11.77
2018-03-18T04:26:20.442Z,11.87
2018-03-18T04:28:47.921Z,11.27
2018-03-18T04:31:15.457Z,10.83
2018-03-18T04:33:42.941Z,11.97
2018-03-18T04:36:10.413Z,12.00
2018-03-18T04:38:37.898Z,10.83
2018-03-18T04:41:06.152Z,11.47
2018-03-18T04:43:33.633Z,11.33
2018-03-18T04:46:01.864Z,11.30
2018-03-18T04:48:29.353Z,12.07
2018-03-18T04:50:56.830Z,11.70
2018-03-18T04:53:25.078Z,11.40
2018-03-18T04:55:52.546Z,11.47
2018-03-18T04:58:20.796Z,11.80
2018-03-18T05:00:48.270Z,10.17
2018-03-18T05:03:15.752Z,9.47
2018-03-18T05:05:43.993Z,9.97
2018-03-18T05:08:11.480Z,10.60
2018-03-18T05:10:39.720Z,10.10
2018-03-18T05:13:07.209Z,11.07
2018-03-18T05:15:35.456Z,10.23
2018-03-18T05:18:02.949Z,9.70
2018-03-18T05:20:31.197Z,9.97
2018-03-18T05:22:58.685Z,9.90
2018-03-18T05:25:26.919Z,9.80
2018-03-18T05:27:54.435Z,9.70
2018-03-18T05:30:21.913Z,10.10
2018-03-18T05:32:49.376Z,9.93
2018-03-18T05:35:17.011Z,9.83
2018-03-18T05:37:44.474Z,9.47
2018-03-18T05:40:11.957Z,10.60
2018-03-18T05:42:39.428Z,10.30
2018-03-18T05:45:07.678Z,10.13
2018-03-18T05:47:35.146Z,9.47
2018-03-18T05:50:02.632Z,9.27
2018-03-18T05:52:30.120Z,10.27
2018-03-18T05:54:57.612Z,9.77
2018-03-18T05:57:25.145Z,10.40
2018-03-18T05:59:53.385Z,9.50
2018-03-18T06:02:21.612Z,8.97
2018-03-18T06:04:49.094Z,9.67
2018-03-18T06:07:16.576Z,10.20
2018-03-18T06:09:44.833Z,9.73
2018-03-18T06:12:12.303Z,9.57
2018-03-18T06:14:39.793Z,10.33
2018-03-18T06:17:07.275Z,9.57
2018-03-18T06:19:34.741Z,9.53
2018-03-18T06:22:02.244Z,9.70
2018-03-18T06:24:30.541Z,10.53
2018-03-18T06:26:58.038Z,10.43
2018-03-18T06:29:25.556Z,9.53
2018-03-18T06:31:53.801Z,10.03
2018-03-18T06:34:21.281Z,10.10
2018-03-18T06:36:49.554Z,10.53
2018-03-18T06:39:17.812Z,10.07
2018-03-18T06:41:46.060Z,9.40
2018-03-18T06:44:13.530Z,8.60
2018-03-18T06:46:41.026Z,9.53
2018-03-18T06:49:08.489Z,9.87
2018-03-18T06:51:35.993Z,9.03
2018-03-18T06:54:03.453Z,9.70
2018-03-18T06:56:32.462Z,9.20
2018-03-18T06:58:59.934Z,9.67
2018-03-18T07:01:28.173Z,9.20
2018-03-18T07:03:56.435Z,9.10
2018-03-18T07:06:23.906Z,9.53
2018-03-18T07:08:52.165Z,8.43
2018-03-18T07:11:19.649Z,9.40
2018-03-18T07:13:47.917Z,9.73
2018-03-18T07:16:16.165Z,8.97
2018-03-18T07:18:43.654Z,8.80
2018-03-18T07:21:11.133Z,8.93
2018-03-18T07:23:38.632Z,10.13
2018-03-18T07:26:06.101Z,9.00
2018-03-18T07:28:33.584Z,8.97
2018-03-18T07:31:01.060Z,8.43
2018-03-18T07:33:28.570Z,9.07
2018-03-18T07:35:56.043Z,8.57
2018-03-18T07:38:23.533Z,8.50
2018-03-18T07:40:51.018Z,8.23
2018-03-18T07:43:19.271Z,9.10
2018-03-18T07:45:46.745Z,8.33
2018-03-18T07:48:15.013Z,28.13
2018-03-18T07:50:43.253Z,9.87
2018-03-18T07:53:11.043Z,8.07
2018-03-18T07:55:39.307Z,8.33
2018-03-18T07:58:06.806Z,7.63
2018-03-18T08:00:34.381Z,7.90
2018-03-18T08:03:01.836Z,8.53
2018-03-18T08:05:29.324Z,8.83
2018-03-18T08:07:56.793Z,9.27
2018-03-18T08:10:24.276Z,8.73
2018-03-18T08:12:52.524Z,9.03
2018-03-18T08:15:20.008Z,8.40
2018-03-18T08:17:48.245Z,9.37
2018-03-18T08:20:15.744Z,8.30
2018-03-18T08:22:43.982Z,8.90
2018-03-18T08:25:11.477Z,7.90
2018-03-18T08:27:39.719Z,8.40
2018-03-18T08:30:07.225Z,9.00
2018-03-18T08:32:35.460Z,8.13
2018-03-18T08:35:02.947Z,8.20
2018-03-18T08:37:31.183Z,8.67
2018-03-18T08:39:58.681Z,8.23
2018-03-18T08:42:29.759Z,8.13
2018-03-18T08:44:57.237Z,7.60
2018-03-18T08:47:24.710Z,7.53
2018-03-18T08:49:52.398Z,8.03
2018-03-18T08:52:20.681Z,8.77
2018-03-18T08:54:48.122Z,8.57
2018-03-18T08:57:15.604Z,8.87
2018-03-18T08:59:43.084Z,8.90
2018-03-18T09:02:10.596Z,8.67
2018-03-18T09:04:38.061Z,7.97
2018-03-18T09:07:06.324Z,8.33
2018-03-18T09:09:33.806Z,8.73
2018-03-18T09:12:01.305Z,8.40
2018-03-18T09:14:28.772Z,8.00
2018-03-18T09:16:56.298Z,7.70
2018-03-18T09:19:24.546Z,7.83
2018-03-18T09:21:52.031Z,8.17
2018-03-18T09:24:19.491Z,7.80
2018-03-18T09:26:46.974Z,9.60
2018-03-18T09:29:14.444Z,11.83
2018-03-18T09:31:41.934Z,8.30
2018-03-18T09:34:10.177Z,8.57
2018-03-18T09:36:37.663Z,8.10
2018-03-18T09:39:05.929Z,8.20
2018-03-18T09:41:33.391Z,8.03
2018-03-18T09:44:01.691Z,9.20
2018-03-18T09:46:29.176Z,8.43
2018-03-18T09:48:56.694Z,8.60
2018-03-18T09:51:24.917Z,7.97
2018-03-18T09:53:52.401Z,8.23
2018-03-18T09:56:19.878Z,8.27
2018-03-18T09:58:48.140Z,8.53
2018-03-18T10:01:16.393Z,8.43
2018-03-18T10:03:43.907Z,9.00
2018-03-18T10:06:12.141Z,8.73
2018-03-18T10:08:39.649Z,8.13
2018-03-18T10:11:07.137Z,8.50
2018-03-18T10:13:34.616Z,8.60
2018-03-18T10:16:02.165Z,8.40
2018-03-18T10:18:29.645Z,8.83
2018-03-18T10:20:57.109Z,8.43
2018-03-18T10:23:25.347Z,10.00
2018-03-18T10:25:52.834Z,15.67
2018-03-18T10:28:20.296Z,8.57
2018-03-18T10:30:48.554Z,7.60
2018-03-18T10:33:16.020Z,9.53
2018-03-18T10:35:43.508Z,9.03
2018-03-18T10:38:10.981Z,9.00
2018-03-18T10:40:38.456Z,9.20
2018-03-18T10:43:05.925Z,8.40
2018-03-18T10:45:33.410Z,8.93
2018-03-18T10:48:00.881Z,8.17
2018-03-18T10:50:29.125Z,9.00
2018-03-18T10:52:56.615Z,8.53
2018-03-18T10:55:24.867Z,8.07
2018-03-18T10:57:53.105Z,9.07
2018-03-18T11:00:20.601Z,9.50
2018-03-18T11:02:50.896Z,8.87
2018-03-18T11:05:18.361Z,8.57
2018-03-18T11:07:45.846Z,8.83
2018-03-18T11:10:13.308Z,8.77
2018-03-18T11:12:41.582Z,9.30
2018-03-18T11:15:09.071Z,9.87
2018-03-18T11:17:36.554Z,8.90
2018-03-18T11:20:04.028Z,8.83
2018-03-18T11:22:31.520Z,9.73
2018-03-18T11:24:58.985Z,10.97
2018-03-18T11:27:26.477Z,10.20
2018-03-18T11:29:53.956Z,10.03
2018-03-18T11:32:21.474Z,9.37
2018-03-18T11:34:49.714Z,9.43
2018-03-18T11:37:17.201Z,9.20
2018-03-18T11:39:45.424Z,8.83
2018-03-18T11:42:12.921Z,9.13
2018-03-18T11:44:40.396Z,10.30
2018-03-18T11:47:08.642Z,8.90
2018-03-18T11:49:36.158Z,9.43
2018-03-18T11:52:04.374Z,9.60
2018-03-18T11:54:32.331Z,10.03
2018-03-18T11:56:59.818Z,8.87
2018-03-18T11:59:27.303Z,8.57
2018-03-18T12:01:54.788Z,9.00
2018-03-18T12:04:22.288Z,8.80
2018-03-18T12:06:50.533Z,10.07
2018-03-18T12:09:18.029Z,9.43
2018-03-18T12:11:46.268Z,10.17
2018-03-18T12:14:13.750Z,8.10
2018-03-18T12:16:41.226Z,9.10
2018-03-18T12:19:09.489Z,8.90
2018-03-18T12:21:36.953Z,8.87
2018-03-18T12:24:05.201Z,8.53
2018-03-18T12:26:32.667Z,8.77
2018-03-18T12:29:00.157Z,8.67
2018-03-18T12:31:28.443Z,8.43
2018-03-18T12:33:55.952Z,7.97
2018-03-18T12:36:23.424Z,8.80
2018-03-18T12:38:50.936Z,8.93
2018-03-18T12:41:18.426Z,8.67
2018-03-18T12:43:45.898Z,8.27
2018-03-18T12:46:13.370Z,9.00
2018-03-18T12:48:41.618Z,8.37
2018-03-18T12:51:09.096Z,9.13
2018-03-18T12:53:37.345Z,8.83
2018-03-18T12:56:04.865Z,8.57
2018-03-18T12:58:32.340Z,9.37
2018-03-18T13:00:59.831Z,9.27
2018-03-18T13:03:27.298Z,8.57
2018-03-18T13:05:55.550Z,8.63
2018-03-18T13:08:23.041Z,8.50
2018-03-18T13:10:51.289Z,8.70
2018-03-18T13:13:18.764Z,8.17
2018-03-18T13:15:46.255Z,8.37
2018-03-18T13:18:13.759Z,8.30
2018-03-18T13:20:41.256Z,8.03
2018-03-18T13:23:08.791Z,9.20
2018-03-18T13:25:36.300Z,14.27
2018-03-18T13:28:03.769Z,9.17
2018-03-18T13:30:31.262Z,11.40
2018-03-18T13:32:58.720Z,9.40
2018-03-18T13:35:26.991Z,8.33
2018-03-18T13:37:54.456Z,8.03
2018-03-18T13:40:22.804Z,8.10
2018-03-18T13:42:50.279Z,7.80
2018-03-18T13:45:17.747Z,7.37
2018-03-18T13:47:45.230Z,8.33
2018-03-18T13:50:12.780Z,8.03
2018-03-18T13:52:41.040Z,8.40
2018-03-18T13:55:08.510Z,7.70
2018-03-18T13:57:36.774Z,7.67
2018-03-18T14:00:05.117Z,8.50
2018-03-18T14:02:32.611Z,7.80
2018-03-18T14:05:00.895Z,8.07
2018-03-18T14:07:29.158Z,7.47
2018-03-18T14:09:56.625Z,7.50
2018-03-18T14:12:24.884Z,7.83
2018-03-18T14:14:52.361Z,7.27
2018-03-18T14:17:20.645Z,8.10
2018-03-18T14:19:48.144Z,7.33
2018-03-18T14:22:15.610Z,7.87
2018-03-18T14:24:43.115Z,7.63
2018-03-18T14:27:11.361Z,7.87
2018-03-18T14:29:38.867Z,7.53
2018-03-18T14:32:06.350Z,7.80
2018-03-18T14:34:33.860Z,7.20
2018-03-18T14:37:02.120Z,7.30
2018-03-18T14:39:29.618Z,7.97
2018-03-18T14:41:57.089Z,6.93
2018-03-18T14:44:24.576Z,7.40
2018-03-18T14:46:52.037Z,7.70
2018-03-18T14:49:19.529Z,7.63
2018-03-18T14:51:47.048Z,6.83
2018-03-18T14:54:14.540Z,7.43
2018-03-18T14:56:42.780Z,7.77
2018-03-18T14:59:10.268Z,7.33
2018-03-18T15:01:38.501Z,7.67
2018-03-18T15:04:05.979Z,7.47
2018-03-18T15:06:33.462Z,6.83
2018-03-18T15:09:02.708Z,7.27
2018-03-18T15:11:30.196Z,6.83
2018-03-18T15:13:57.699Z,6.30
2018-03-18T15:16:25.204Z,7.07
2018-03-18T15:18:52.676Z,6.97
2018-03-18T15:21:20.955Z,6.40
2018-03-18T15:23:49.201Z,6.67
2018-03-18T15:26:16.680Z,7.10
2018-03-18T15:28:44.131Z,6.90
2018-03-18T15:31:11.628Z,6.60
2018-03-18T15:33:39.094Z,6.97
2018-03-18T15:36:06.585Z,7.40
2018-03-18T15:38:34.079Z,7.07
2018-03-18T15:41:02.344Z,6.23
2018-03-18T15:43:29.824Z,7.00
2018-03-18T15:45:58.076Z,6.67
2018-03-18T15:48:25.552Z,7.37
2018-03-18T15:50:53.805Z,9.30
2018-03-18T15:53:21.267Z,7.30
2018-03-18T15:55:48.731Z,7.13
2018-03-18T15:58:16.984Z,7.03
2018-03-18T16:00:44.470Z,6.77
2018-03-18T16:03:11.968Z,7.37
2018-03-18T16:05:39.462Z,6.60
2018-03-18T16:08:06.953Z,6.27
2018-03-18T16:10:35.209Z,6.70
2018-03-18T16:13:03.473Z,6.33
2018-03-18T16:15:31.717Z,6.27
2018-03-18T16:17:59.254Z,6.30
2018-03-18T16:20:26.730Z,6.90
2018-03-18T16:22:54.241Z,9.27
2018-03-18T16:25:21.791Z,8.50
2018-03-18T16:27:49.343Z,7.70
2018-03-18T16:30:28.673Z,6.57
2018-03-18T16:32:56.142Z,6.63
2018-03-18T16:35:23.644Z,7.00
2018-03-18T16:37:51.146Z,6.63
2018-03-18T16:40:18.770Z,6.07
2018-03-18T16:42:46.262Z,6.30
2018-03-18T16:45:13.742Z,9.13
2018-03-18T16:47:41.294Z,10.00
2018-03-18T16:50:08.809Z,7.63
2018-03-18T16:52:36.343Z,6.50
2018-03-18T16:55:03.828Z,6.00
2018-03-18T16:57:31.388Z,6.47
2018-03-18T16:59:58.892Z,6.10
2018-03-18T17:02:26.374Z,6.83
2018-03-18T17:04:53.907Z,6.50
2018-03-18T17:07:22.195Z,6.67
2018-03-18T17:09:50.466Z,6.63
2018-03-18T17:12:17.942Z,6.10
2018-03-18T17:14:45.433Z,5.70
2018-03-18T17:17:12.913Z,5.77
2018-03-18T17:19:40.399Z,6.23
2018-03-18T17:22:07.912Z,6.87
2018-03-18T17:24:35.422Z,6.50
2018-03-18T17:27:02.929Z,6.27
2018-03-18T17:29:30.417Z,6.33
2018-03-18T17:31:57.922Z,5.67
2018-03-18T17:34:25.377Z,5.63
2018-03-18T17:36:52.878Z,5.87
2018-03-18T17:39:20.442Z,6.43
2018-03-18T17:41:48.004Z,6.47
2018-03-18T17:44:28.091Z,6.53
2018-03-18T17:47:07.630Z,6.43
2018-03-18T17:49:46.965Z,6.03
2018-03-18T17:52:26.288Z,6.13
2018-03-18T17:55:05.491Z,5.70
2018-03-18T17:57:33.785Z,5.90
2018-03-18T18:00:02.032Z,5.50
2018-03-18T18:02:29.556Z,5.60
2018-03-18T18:04:57.055Z,6.00
2018-03-18T18:07:24.567Z,5.73
2018-03-18T18:09:52.040Z,6.57
2018-03-18T18:12:19.539Z,6.40
2018-03-18T18:14:47.070Z,5.33
2018-03-18T18:17:14.559Z,5.53
2018-03-18T18:19:42.067Z,5.53
2018-03-18T18:22:09.538Z,5.77
2018-03-18T18:24:37.074Z,6.23
2018-03-18T18:27:04.578Z,5.80
2018-03-18T18:29:32.868Z,6.50
2018-03-18T18:32:00.333Z,5.40
2018-03-18T18:34:28.602Z,5.33
2018-03-18T18:36:56.860Z,5.20
2018-03-18T18:39:24.359Z,5.60
2018-03-18T18:41:51.920Z,5.63
2018-03-18T18:44:19.396Z,5.13
2018-03-18T18:46:46.892Z,6.10
2018-03-18T18:49:14.392Z,5.57
2018-03-18T18:51:41.869Z,6.03
2018-03-18T18:54:09.424Z,4.47
2018-03-18T18:56:36.968Z,6.07
2018-03-18T18:59:04.430Z,5.90
2018-03-18T19:01:31.940Z,5.57
2018-03-18T19:03:59.432Z,5.53
2018-03-18T19:06:28.504Z,5.40
2018-03-18T19:08:55.993Z,5.07
2018-03-18T19:11:23.452Z,5.43
2018-03-18T19:13:51.006Z,4.87
2018-03-18T19:16:18.500Z,6.13
2018-03-18T19:18:46.013Z,5.30
2018-03-18T19:21:13.498Z,5.83
2018-03-18T19:23:40.996Z,5.67
2018-03-18T19:26:08.801Z,5.30
2018-03-18T19:28:36.297Z,5.53
2018-03-18T19:31:03.789Z,5.40
2018-03-18T19:33:32.066Z,5.40
2018-03-18T19:36:00.347Z,5.50
2018-03-18T19:38:29.877Z,5.37
2018-03-18T19:40:57.382Z,5.37
2018-03-18T19:43:24.866Z,5.33
2018-03-18T19:45:53.136Z,5.13
2018-03-18T19:48:20.657Z,5.50
2018-03-18T19:50:48.119Z,5.30
2018-03-18T19:53:15.596Z,5.57
2018-03-18T19:55:43.105Z,5.17
2018-03-18T19:58:10.580Z,5.03
2018-03-18T20:00:38.082Z,5.03
2018-03-18T20:03:05.560Z,5.30
2018-03-18T20:05:33.058Z,5.30
2018-03-18T20:08:00.587Z,5.07
2018-03-18T20:10:28.838Z,5.60
2018-03-18T20:12:56.338Z,7.47
2018-03-18T20:15:23.889Z,5.87
2018-03-18T20:17:51.367Z,5.47
2018-03-18T20:20:18.908Z,5.17
2018-03-18T20:22:46.393Z,4.40
2018-03-18T20:25:13.941Z,5.00
2018-03-18T20:27:41.478Z,5.30
2018-03-18T20:30:09.007Z,5.20
2018-03-18T20:32:37.260Z,4.90
2018-03-18T20:35:04.759Z,5.20
2018-03-18T20:37:32.221Z,5.13
2018-03-18T20:39:59.697Z,5.83
2018-03-18T20:42:27.204Z,11.43
2018-03-18T20:44:55.480Z,6.03
2018-03-18T20:47:24.601Z,5.37
2018-03-18T20:49:52.120Z,5.07
2018-03-18T20:52:28.382Z,5.17
2018-03-18T20:54:55.873Z,5.03
2018-03-18T20:57:23.386Z,5.50
2018-03-18T20:59:50.846Z,5.50
2018-03-18T21:02:18.365Z,5.20
2018-03-18T21:04:45.833Z,5.10
2018-03-18T21:07:13.340Z,4.63
2018-03-18T21:09:40.800Z,5.83
2018-03-18T21:12:08.322Z,5.70
2018-03-18T21:14:35.796Z,4.93
2018-03-18T21:17:03.292Z,4.77
2018-03-18T21:19:30.790Z,4.83
2018-03-18T21:21:58.293Z,4.87
2018-03-18T21:24:26.565Z,4.43
2018-03-18T21:26:54.829Z,4.63
2018-03-18T21:29:22.301Z,5.00
2018-03-18T21:31:50.559Z,5.37
2018-03-18T21:34:18.051Z,4.90
2018-03-18T21:36:46.304Z,4.90
2018-03-18T21:39:13.771Z,5.50
2018-03-18T21:41:42.254Z,5.07
2018-03-18T21:44:10.505Z,4.87
2018-03-18T21:46:37.969Z,5.23
2018-03-18T21:49:05.484Z,5.07
2018-03-18T21:51:33.024Z,6.27
2018-03-18T21:54:00.529Z,4.90
2018-03-18T21:56:28.014Z,5.30
2018-03-18T21:58:55.525Z,4.77
2018-03-18T22:01:23.004Z,5.00
2018-03-18T22:03:50.497Z,5.77
2018-03-18T22:06:18.744Z,5.77
2018-03-18T22:08:46.246Z,19.23
2018-03-18T22:11:13.717Z,5.83
2018-03-18T22:13:41.208Z,5.17
2018-03-18T22:16:08.675Z,5.80
2018-03-18T22:18:36.950Z,7.37
2018-03-18T22:21:04.425Z,5.70
2018-03-18T22:23:32.889Z,5.60
2018-03-18T22:26:00.400Z,5.07
2018-03-18T22:28:27.895Z,5.47
2018-03-18T22:30:55.366Z,5.73
2018-03-18T22:33:22.852Z,5.27
2018-03-18T22:35:51.085Z,5.40
2018-03-18T22:38:18.614Z,5.90
2018-03-18T22:40:46.095Z,5.40
2018-03-18T22:45:47.448Z,5.57
2018-03-18T22:48:14.926Z,5.17
2018-03-18T22:50:42.400Z,5.43
2018-03-18T22:53:09.874Z,5.73
2018-03-18T22:55:38.125Z,5.30
2018-03-18T22:58:05.606Z,6.23
2018-03-18T23:00:33.849Z,5.23
2018-03-18T23:03:01.315Z,5.90
2018-03-18T23:05:28.802Z,5.73
2018-03-18T23:07:56.291Z,5.80
2018-03-18T23:10:23.789Z,5.60
2018-03-18T23:12:51.266Z,5.90
2018-03-18T23:15:18.753Z,5.80
2018-03-18T23:18:01.099Z,6.00
2018-03-18T23:20:29.361Z,6.23
2018-03-18T23:22:57.601Z,5.83
2018-03-18T23:25:25.094Z,6.10
2018-03-18T23:27:53.341Z,6.00
2018-03-18T23:30:20.843Z,5.47
2018-03-18T23:32:49.129Z,5.97
2018-03-18T23:35:16.593Z,5.97
2018-03-18T23:37:44.086Z,5.97
2018-03-18T23:40:11.564Z,6.20
2018-03-18T23:42:39.170Z,5.97
2018-03-18T23:45:06.566Z,6.10
2018-03-18T23:47:34.058Z,6.20
2018-03-18T23:50:01.536Z,6.13
2018-03-18T23:52:29.026Z,5.47
2018-03-18T23:54:56.496Z,5.77
2018-03-18T23:57:23.964Z,5.67
2018-03-18T23:59:52.941Z,6.73
